Time;durP1;ratioP1;P1;durP2;ratioP2;P2;SDS_P1;SDS_P2;PMS_P1;PMS_P2;Temp;Humidity;BMP_temperature;BMP_pressure;BME280_temperature;BME280_humidity;BME280_pressure;Samples;Min_cycle;Max_cycle;Signal;HPM_P1;HPM_P2
2021/11/05 00:00:33;;;;;;;69.05;36.15;;;;;;;;;;4997455;28;20195;-81
2021/11/05 00:03:00;;;;;;;65.15;34.55;;;;;;;;;;4996642;28;20221;-81
2021/11/05 00:05:27;;;;;;;61.95;33.28;;;;;;;;;;4999583;28;20258;-81
2021/11/05 00:07:53;;;;;;;64.60;35.28;;;;;;;;;;4990385;28;20650;-81
2021/11/05 00:10:19;;;;;;;72.70;36.47;;;;;;;;;;4993769;28;20228;-81
2021/11/05 00:12:46;;;;;;;60.90;34.25;;;;;;;;;;4995234;28;20203;-81
2021/11/05 00:15:12;;;;;;;65.32;33.22;;;;;;;;;;4995329;28;20266;-82
2021/11/05 00:17:38;;;;;;;59.67;32.03;;;;;;;;;;4995568;28;20179;-82
2021/11/05 00:20:05;;;;;;;64.32;33.63;;;;;;;;;;4995346;28;20190;-82
2021/11/05 00:22:31;;;;;;;77.45;36.15;;;;;;;;;;5010058;28;20219;-82
2021/11/05 00:24:57;;;;;;;60.40;33.03;;;;;;;;;;5010595;28;20183;-82
2021/11/05 00:27:23;;;;;;;72.77;32.77;;;;;;;;;;4994297;28;20256;-82
2021/11/05 00:29:49;;;;;;;69.30;33.67;;;;;;;;;;5010374;28;20415;-82
2021/11/05 00:32:15;;;;;;;64.95;34.83;;;;;;;;;;4994922;28;20211;-82
2021/11/05 00:34:41;;;;;;;70.50;34.42;;;;;;;;;;4995214;28;20668;-82
2021/11/05 00:37:07;;;;;;;70.53;34.70;;;;;;;;;;4995357;28;20182;-82
2021/11/05 00:39:33;;;;;;;61.47;34.05;;;;;;;;;;5008478;28;20457;-82
2021/11/05 00:42:02;;;;;;;57.17;33.63;;;;;;;;;;4993685;28;20226;-82
2021/11/05 00:44:28;;;;;;;58.53;31.80;;;;;;;;;;4994734;28;20172;-82
2021/11/05 00:46:54;;;;;;;55.72;31.10;;;;;;;;;;4994897;28;20648;-82
2021/11/05 00:49:20;;;;;;;65.95;31.17;;;;;;;;;;4994976;28;20223;-82
2021/11/05 00:51:46;;;;;;;54.27;30.67;;;;;;;;;;4994794;28;20203;-82
2021/11/05 00:54:12;;;;;;;52.45;29.67;;;;;;;;;;4994860;28;20422;-82
2021/11/05 00:56:38;;;;;;;62.58;33.42;;;;;;;;;;4994943;28;20365;-82
2021/11/05 00:59:04;;;;;;;58.20;32.07;;;;;;;;;;4994861;28;20183;-82
2021/11/05 01:01:30;;;;;;;58.00;32.40;;;;;;;;;;4993208;28;20415;-82
2021/11/05 01:03:56;;;;;;;53.60;32.13;;;;;;;;;;4994918;28;20504;-82
2021/11/05 01:06:22;;;;;;;61.10;34.30;;;;;;;;;;4984879;28;20796;-81
2021/11/05 01:08:48;;;;;;;65.03;34.45;;;;;;;;;;4994910;28;20407;-82
2021/11/05 01:11:15;;;;;;;61.80;33.40;;;;;;;;;;4994371;28;20594;-82
2021/11/05 01:13:41;;;;;;;62.80;34.67;;;;;;;;;;4993004;28;20206;-82
2021/11/05 01:16:07;;;;;;;66.07;34.20;;;;;;;;;;4993402;28;20262;-82
2021/11/05 01:18:33;;;;;;;62.45;33.35;;;;;;;;;;4994563;28;20258;-82
2021/11/05 01:20:59;;;;;;;69.13;37.33;;;;;;;;;;4994092;28;20176;-82
2021/11/05 01:23:25;;;;;;;66.07;35.13;;;;;;;;;;4994186;28;20223;-82
2021/11/05 01:25:52;;;;;;;54.67;31.90;;;;;;;;;;4994403;28;20411;-82
2021/11/05 01:28:18;;;;;;;63.50;32.58;;;;;;;;;;4994239;28;20411;-82
2021/11/05 01:30:44;;;;;;;67.57;32.90;;;;;;;;;;4993189;28;20187;-83
2021/11/05 01:33:11;;;;;;;67.13;35.30;;;;;;;;;;4994011;28;20199;-82
2021/11/05 01:35:38;;;;;;;65.50;33.80;;;;;;;;;;4988833;28;20191;-82
2021/11/05 01:38:06;;;;;;;64.35;35.72;;;;;;;;;;4974696;28;20199;-82
2021/11/05 01:40:32;;;;;;;62.50;34.28;;;;;;;;;;4985086;28;20184;-82
2021/11/05 01:43:01;;;;;;;64.37;34.23;;;;;;;;;;5008607;28;20240;-82
2021/11/05 01:45:27;;;;;;;60.60;33.22;;;;;;;;;;4993895;28;20415;-82
2021/11/05 01:47:53;;;;;;;71.70;33.95;;;;;;;;;;4992737;28;20524;-82
2021/11/05 01:50:19;;;;;;;65.88;34.53;;;;;;;;;;4993775;28;20277;-82
2021/11/05 01:52:45;;;;;;;63.45;34.88;;;;;;;;;;4993569;28;20199;-82
2021/11/05 01:55:12;;;;;;;74.07;35.90;;;;;;;;;;4993774;28;20183;-82
2021/11/05 01:57:38;;;;;;;76.28;36.85;;;;;;;;;;5009177;28;20592;-82
2021/11/05 02:00:06;;;;;;;69.75;35.75;;;;;;;;;;4993999;28;20190;-82
2021/11/05 02:02:32;;;;;;;91.57;40.72;;;;;;;;;;5008527;28;20225;-82
2021/11/05 02:04:58;;;;;;;89.32;39.22;;;;;;;;;;4993813;28;20187;-82
2021/11/05 02:07:27;;;;;;;81.43;36.60;;;;;;;;;;4992993;28;20187;-82
2021/11/05 02:09:55;;;;;;;86.10;37.00;;;;;;;;;;4993887;28;20545;-82
2021/11/05 02:12:21;;;;;;;90.30;37.95;;;;;;;;;;4992102;28;20203;-82
2021/11/05 02:14:47;;;;;;;93.15;36.88;;;;;;;;;;4993585;28;20187;-82
2021/11/05 02:17:14;;;;;;;100.28;39.00;;;;;;;;;;4993671;28;20190;-82
2021/11/05 02:19:40;;;;;;;90.32;37.13;;;;;;;;;;4993649;28;20182;-82
2021/11/05 02:22:06;;;;;;;85.85;34.92;;;;;;;;;;4993191;28;20208;-82
2021/11/05 02:24:33;;;;;;;89.40;34.30;;;;;;;;;;4993579;28;20234;-83
2021/11/05 02:26:59;;;;;;;67.72;31.88;;;;;;;;;;4993693;28;20589;-82
2021/11/05 02:29:29;;;;;;;81.70;32.92;;;;;;;;;;4993535;28;20266;-81
2021/11/05 02:31:55;;;;;;;78.60;31.95;;;;;;;;;;4993121;28;20218;-81
2021/11/05 02:34:21;;;;;;;79.38;31.50;;;;;;;;;;4992311;28;20185;-81
2021/11/05 02:36:47;;;;;;;73.65;30.45;;;;;;;;;;4992377;28;20187;-81
2021/11/05 02:39:13;;;;;;;81.30;32.25;;;;;;;;;;4993554;28;20187;-81
2021/11/05 02:41:41;;;;;;;85.78;32.33;;;;;;;;;;4992890;28;20360;-82
2021/11/05 02:44:10;;;;;;;75.38;30.90;;;;;;;;;;4993466;28;20183;-82
2021/11/05 02:46:36;;;;;;;74.47;30.95;;;;;;;;;;4993497;28;20172;-82
2021/11/05 02:49:04;;;;;;;74.07;31.23;;;;;;;;;;4992316;28;20216;-82
2021/11/05 02:51:30;;;;;;;73.07;32.55;;;;;;;;;;4992900;28;20187;-82
2021/11/05 02:53:57;;;;;;;68.63;29.40;;;;;;;;;;4993085;28;20175;-81
2021/11/05 02:56:23;;;;;;;71.10;31.27;;;;;;;;;;5008269;28;20187;-81
2021/11/05 02:58:50;;;;;;;67.25;29.25;;;;;;;;;;5008396;28;20265;-81
2021/11/05 03:01:16;;;;;;;66.13;28.92;;;;;;;;;;4993241;28;20185;-81
2021/11/05 03:03:43;;;;;;;67.10;28.58;;;;;;;;;;4996710;28;20587;-82
2021/11/05 03:06:09;;;;;;;61.05;27.80;;;;;;;;;;5012023;28;20725;-81
2021/11/05 03:08:35;;;;;;;63.95;27.67;;;;;;;;;;4996943;28;20258;-81
2021/11/05 03:11:01;;;;;;;68.28;28.67;;;;;;;;;;4996656;28;20262;-81
2021/11/05 03:13:27;;;;;;;56.40;26.00;;;;;;;;;;4997072;28;20199;-81
2021/11/05 03:15:53;;;;;;;56.00;27.92;;;;;;;;;;4997007;28;20179;-81
2021/11/05 03:18:19;;;;;;;65.63;29.70;;;;;;;;;;5012015;28;20214;-81
2021/11/05 03:20:45;;;;;;;56.92;27.80;;;;;;;;;;4996821;28;20205;-81
2021/11/05 03:23:15;;;;;;;66.72;28.52;;;;;;;;;;4996051;28;20215;-81
2021/11/05 03:25:41;;;;;;;63.78;28.70;;;;;;;;;;4996118;28;20213;-81
2021/11/05 03:28:08;;;;;;;58.17;26.58;;;;;;;;;;4996390;28;20214;-81
2021/11/05 03:30:34;;;;;;;58.65;27.98;;;;;;;;;;4995072;28;20195;-82
2021/11/05 03:33:00;;;;;;;51.90;25.10;;;;;;;;;;4996169;28;20228;-82
2021/11/05 03:35:26;;;;;;;55.80;27.80;;;;;;;;;;4996350;28;20179;-81
2021/11/05 03:37:52;;;;;;;56.20;25.60;;;;;;;;;;4996311;28;20627;-82
2021/11/05 03:40:19;;;;;;;57.53;26.38;;;;;;;;;;4996222;28;20478;-81
2021/11/05 03:42:49;;;;;;;57.80;27.88;;;;;;;;;;4995894;28;20204;-81
2021/11/05 03:45:16;;;;;;;65.05;27.95;;;;;;;;;;4996366;28;20631;-82
2021/11/05 03:47:42;;;;;;;62.17;27.25;;;;;;;;;;4996245;28;20541;-82
2021/11/05 03:50:08;;;;;;;58.40;28.20;;;;;;;;;;4995964;28;20534;-82
2021/11/05 03:52:34;;;;;;;66.15;29.45;;;;;;;;;;4995709;28;20196;-81
2021/11/05 03:55:00;;;;;;;68.23;27.87;;;;;;;;;;4993285;28;20209;-82
2021/11/05 03:57:26;;;;;;;61.88;29.23;;;;;;;;;;5011019;28;20426;-82
2021/11/05 03:59:52;;;;;;;66.80;29.07;;;;;;;;;;4994593;28;20183;-82
2021/11/05 04:02:18;;;;;;;62.65;29.30;;;;;;;;;;4995182;28;20552;-81
2021/11/05 04:04:47;;;;;;;65.07;29.83;;;;;;;;;;4996030;28;20294;-81
2021/11/05 04:07:13;;;;;;;59.45;29.35;;;;;;;;;;4994524;28;20458;-81
2021/11/05 04:09:39;;;;;;;65.68;30.50;;;;;;;;;;4995985;28;20179;-81
2021/11/05 04:12:05;;;;;;;51.90;25.87;;;;;;;;;;4995301;28;20267;-81
2021/11/05 04:14:32;;;;;;;57.70;27.52;;;;;;;;;;4995595;28;20446;-81
2021/11/05 04:16:58;;;;;;;58.85;26.90;;;;;;;;;;4995660;28;20527;-80
2021/11/05 04:19:24;;;;;;;58.67;29.20;;;;;;;;;;5010592;28;20185;-80
2021/11/05 04:21:50;;;;;;;58.60;31.07;;;;;;;;;;4993152;28;20223;-81
2021/11/05 04:24:16;;;;;;;56.60;27.33;;;;;;;;;;4994330;28;20864;-81
2021/11/05 04:26:42;;;;;;;57.38;27.33;;;;;;;;;;4995182;28;20411;-81
2021/11/05 04:29:08;;;;;;;51.05;27.63;;;;;;;;;;4995197;28;20179;-81
2021/11/05 04:31:34;;;;;;;51.07;26.80;;;;;;;;;;4994894;28;20569;-81
2021/11/05 04:34:00;;;;;;;52.83;25.75;;;;;;;;;;4995496;28;20505;-81
2021/11/05 04:36:26;;;;;;;45.65;25.95;;;;;;;;;;4995222;28;20271;-81
2021/11/05 04:38:52;;;;;;;48.67;25.73;;;;;;;;;;4995222;28;20205;-81
2021/11/05 04:41:18;;;;;;;50.10;25.88;;;;;;;;;;4994887;28;20182;-81
2021/11/05 04:43:44;;;;;;;52.72;25.05;;;;;;;;;;4995059;28;20252;-81
2021/11/05 04:46:11;;;;;;;50.10;26.92;;;;;;;;;;4993931;28;20179;-81
2021/11/05 04:48:37;;;;;;;47.65;22.60;;;;;;;;;;4987561;28;20210;-81
2021/11/05 04:51:03;;;;;;;48.83;26.05;;;;;;;;;;4975250;28;20270;-81
2021/11/05 04:53:29;;;;;;;56.03;27.63;;;;;;;;;;4975146;28;20416;-80
2021/11/05 04:55:55;;;;;;;49.70;25.10;;;;;;;;;;4975496;28;20263;-80
2021/11/05 04:58:21;;;;;;;59.03;25.60;;;;;;;;;;4975378;28;20560;-81
2021/11/05 05:00:47;;;;;;;51.83;25.83;;;;;;;;;;4975237;28;20635;-81
2021/11/05 05:03:13;;;;;;;45.53;23.60;;;;;;;;;;4975010;28;20312;-81
2021/11/05 05:05:39;;;;;;;49.72;26.27;;;;;;;;;;4990334;28;20885;-81
2021/11/05 05:08:05;;;;;;;46.92;24.20;;;;;;;;;;4990219;28;20188;-80
2021/11/05 05:10:31;;;;;;;48.83;26.08;;;;;;;;;;4975419;28;20206;-81
2021/11/05 05:12:57;;;;;;;45.55;23.48;;;;;;;;;;4974828;28;20196;-81
2021/11/05 05:15:23;;;;;;;45.20;23.90;;;;;;;;;;4975335;28;20191;-80
2021/11/05 05:17:50;;;;;;;39.67;23.73;;;;;;;;;;4975097;28;20184;-81
2021/11/05 05:20:20;;;;;;;46.42;26.05;;;;;;;;;;4975322;28;20179;-81
2021/11/05 05:22:46;;;;;;;44.72;25.35;;;;;;;;;;4974547;28;20597;-81
2021/11/05 05:25:13;;;;;;;48.50;28.05;;;;;;;;;;4989758;28;20241;-81
2021/11/05 05:27:39;;;;;;;44.17;25.77;;;;;;;;;;4974953;28;20184;-81
2021/11/05 05:30:08;;;;;;;45.22;26.13;;;;;;;;;;4989840;28;20246;-81
2021/11/05 05:32:34;;;;;;;43.70;27.90;;;;;;;;;;4989217;28;20713;-81
2021/11/05 05:35:00;;;;;;;44.80;27.40;;;;;;;;;;4974905;28;20192;-81
2021/11/05 05:37:26;;;;;;;41.57;26.53;;;;;;;;;;4974868;28;20179;-80
2021/11/05 05:39:52;;;;;;;50.78;29.20;;;;;;;;;;4974686;28;20431;-81
2021/11/05 05:42:18;;;;;;;39.43;27.03;;;;;;;;;;4974274;28;20211;-81
2021/11/05 05:44:44;;;;;;;48.47;30.23;;;;;;;;;;4989626;28;20424;-81
2021/11/05 05:47:10;;;;;;;46.78;29.08;;;;;;;;;;4974573;28;20183;-81
2021/11/05 05:49:36;;;;;;;43.40;29.00;;;;;;;;;;4974549;28;20208;-81
2021/11/05 05:52:02;;;;;;;46.00;27.75;;;;;;;;;;4974322;28;20430;-81
2021/11/05 05:54:28;;;;;;;43.58;29.65;;;;;;;;;;4989421;28;20188;-80
2021/11/05 05:56:54;;;;;;;44.05;26.83;;;;;;;;;;4980284;28;20190;-81
2021/11/05 05:59:20;;;;;;;50.28;28.02;;;;;;;;;;5009233;28;20184;-81
2021/11/05 06:01:46;;;;;;;44.10;29.02;;;;;;;;;;4993474;28;20729;-81
2021/11/05 06:04:13;;;;;;;39.50;26.20;;;;;;;;;;4993817;28;20182;-81
2021/11/05 06:06:39;;;;;;;32.78;23.33;;;;;;;;;;4992634;28;20183;-81
2021/11/05 06:09:07;;;;;;;40.87;26.50;;;;;;;;;;4993936;28;20180;-81
2021/11/05 06:11:33;;;;;;;41.85;26.30;;;;;;;;;;4993516;28;20883;-80
2021/11/05 06:13:59;;;;;;;34.58;23.25;;;;;;;;;;4993938;28;20178;-81
2021/11/05 06:16:25;;;;;;;42.63;25.60;;;;;;;;;;4993872;28;20175;-81
2021/11/05 06:18:51;;;;;;;40.20;25.30;;;;;;;;;;4993809;28;20183;-81
2021/11/05 06:21:17;;;;;;;38.55;23.15;;;;;;;;;;5008570;28;20776;-81
2021/11/05 06:23:43;;;;;;;38.53;23.75;;;;;;;;;;4993730;28;20231;-81
2021/11/05 06:26:10;;;;;;;32.08;22.80;;;;;;;;;;5008726;28;20733;-81
2021/11/05 06:28:36;;;;;;;37.60;24.60;;;;;;;;;;5008774;28;20211;-80
2021/11/05 06:31:02;;;;;;;37.22;22.67;;;;;;;;;;4993247;28;20223;-81
2021/11/05 06:33:28;;;;;;;38.45;24.70;;;;;;;;;;4993631;28;20200;-80
2021/11/05 06:35:54;;;;;;;42.28;24.05;;;;;;;;;;5009576;28;20188;-81
2021/11/05 06:38:23;;;;;;;39.20;24.50;;;;;;;;;;4997296;28;20647;-82
2021/11/05 06:40:49;;;;;;;44.70;26.83;;;;;;;;;;4996231;28;20421;-82
2021/11/05 06:43:15;;;;;;;47.33;26.70;;;;;;;;;;4996814;28;20224;-81
2021/11/05 06:45:41;;;;;;;42.63;26.95;;;;;;;;;;4996263;28;20474;-81
2021/11/05 06:48:07;;;;;;;41.42;25.38;;;;;;;;;;4997428;28;20230;-81
2021/11/05 06:50:33;;;;;;;40.65;26.95;;;;;;;;;;4997344;28;20179;-81
2021/11/05 06:52:59;;;;;;;43.28;26.75;;;;;;;;;;4996971;28;20200;-81
2021/11/05 06:55:25;;;;;;;47.83;30.00;;;;;;;;;;4997134;28;20182;-80
2021/11/05 06:57:51;;;;;;;45.30;27.95;;;;;;;;;;4997248;28;20255;-82
2021/11/05 07:00:17;;;;;;;38.45;26.60;;;;;;;;;;4997237;28;20175;-81
2021/11/05 07:02:43;;;;;;;45.13;26.85;;;;;;;;;;4995627;28;20214;-81
2021/11/05 07:05:10;;;;;;;45.20;28.93;;;;;;;;;;4996432;28;20229;-82
2021/11/05 07:07:36;;;;;;;35.97;25.65;;;;;;;;;;4997146;28;20414;-81
2021/11/05 07:10:02;;;;;;;41.83;27.02;;;;;;;;;;4997135;28;20203;-81
2021/11/05 07:12:28;;;;;;;42.25;27.42;;;;;;;;;;4996629;28;20290;-81
2021/11/05 07:14:54;;;;;;;48.00;27.47;;;;;;;;;;4997162;28;20222;-81
2021/11/05 07:17:20;;;;;;;48.40;27.77;;;;;;;;;;4996812;28;20410;-81
2021/11/05 07:19:46;;;;;;;32.92;23.80;;;;;;;;;;4996680;28;20179;-81
2021/11/05 07:22:12;;;;;;;36.17;26.42;;;;;;;;;;4995113;28;20620;-81
2021/11/05 07:24:39;;;;;;;43.00;26.80;;;;;;;;;;4996744;28;20234;-81
2021/11/05 07:27:05;;;;;;;40.40;26.50;;;;;;;;;;4996781;28;20768;-81
2021/11/05 07:29:32;;;;;;;44.50;27.90;;;;;;;;;;4996787;28;20182;-81
2021/11/05 07:31:59;;;;;;;43.00;26.92;;;;;;;;;;4996201;28;20314;-81
2021/11/05 07:34:30;;;;;;;36.95;26.33;;;;;;;;;;4996718;28;20242;-82
2021/11/05 07:37:00;;;;;;;38.55;27.35;;;;;;;;;;4996577;28;20156;-81
2021/11/05 07:39:27;;;;;;;39.88;26.30;;;;;;;;;;5011638;28;20234;-81
2021/11/05 07:41:53;;;;;;;38.08;26.35;;;;;;;;;;4993742;28;20581;-79
2021/11/05 07:44:19;;;;;;;42.53;27.00;;;;;;;;;;4995426;28;20199;-80
2021/11/05 07:46:47;;;;;;;44.20;26.92;;;;;;;;;;4993559;28;20202;-80
2021/11/05 07:49:13;;;;;;;43.15;30.25;;;;;;;;;;4976091;28;20168;-81
2021/11/05 07:51:39;;;;;;;37.25;27.98;;;;;;;;;;4976080;28;20571;-81
2021/11/05 07:54:07;;;;;;;33.22;25.55;;;;;;;;;;4976438;28;20901;-81
2021/11/05 07:56:33;;;;;;;39.25;26.65;;;;;;;;;;4975840;28;20199;-80
2021/11/05 07:58:59;;;;;;;43.72;26.30;;;;;;;;;;4976001;28;20176;-81
2021/11/05 08:01:28;;;;;;;41.55;28.67;;;;;;;;;;4976274;28;20263;-81
2021/11/05 08:03:54;;;;;;;41.38;28.17;;;;;;;;;;4991073;28;20670;-81
2021/11/05 08:06:20;;;;;;;51.13;28.80;;;;;;;;;;4976018;28;20219;-81
2021/11/05 08:08:46;;;;;;;41.10;27.73;;;;;;;;;;4991545;28;20414;-81
2021/11/05 08:11:12;;;;;;;40.30;28.10;;;;;;;;;;4990408;28;20404;-80
2021/11/05 08:13:39;;;;;;;43.67;29.27;;;;;;;;;;4991609;28;20231;-80
2021/11/05 08:16:05;;;;;;;45.33;27.92;;;;;;;;;;4991164;28;20244;-82
2021/11/05 08:18:31;;;;;;;40.53;29.65;;;;;;;;;;4995330;28;20254;-81
2021/11/05 08:20:57;;;;;;;43.72;28.73;;;;;;;;;;4994899;28;20693;-82
2021/11/05 08:23:23;;;;;;;54.03;30.37;;;;;;;;;;4994582;28;20222;-82
2021/11/05 08:25:50;;;;;;;46.92;32.33;;;;;;;;;;4995667;28;20747;-81
2021/11/05 08:28:16;;;;;;;44.22;30.67;;;;;;;;;;4995470;28;20183;-82
2021/11/05 08:30:43;;;;;;;46.80;31.40;;;;;;;;;;4995466;28;20187;-81
2021/11/05 08:33:09;;;;;;;43.65;29.85;;;;;;;;;;4995191;28;20207;-81
2021/11/05 08:35:36;;;;;;;49.70;28.73;;;;;;;;;;4995446;28;20175;-82
2021/11/05 08:38:02;;;;;;;47.33;31.33;;;;;;;;;;4978253;28;20655;-81
2021/11/05 08:40:29;;;;;;;50.40;32.20;;;;;;;;;;4995512;28;20273;-81
2021/11/05 08:42:55;;;;;;;53.95;32.05;;;;;;;;;;4994916;28;20697;-82
2021/11/05 08:45:21;;;;;;;59.50;32.08;;;;;;;;;;4995302;28;20256;-82
2021/11/05 08:47:47;;;;;;;49.90;32.65;;;;;;;;;;4995284;28;20203;-81
2021/11/05 08:50:23;;;;;;;51.15;30.35;;;;;;;;;;4995089;28;20638;-82
2021/11/05 08:52:50;;;;;;;44.97;28.60;;;;;;;;;;4994755;28;20644;-82
2021/11/05 08:55:18;;;;;;;46.60;31.05;;;;;;;;;;4992938;28;20187;-82
2021/11/05 08:57:44;;;;;;;47.17;30.20;;;;;;;;;;4994007;28;20185;-82
2021/11/05 09:00:12;;;;;;;46.67;28.83;;;;;;;;;;4995450;28;20183;-82
2021/11/05 09:02:39;;;;;;;40.67;28.10;;;;;;;;;;4996861;28;20840;-82
2021/11/05 09:05:05;;;;;;;51.20;28.40;;;;;;;;;;4994687;28;20214;-82
2021/11/05 09:07:31;;;;;;;50.30;27.60;;;;;;;;;;4994878;28;20179;-81
2021/11/05 09:09:57;;;;;;;41.47;26.52;;;;;;;;;;4994953;28;20225;-82
2021/11/05 09:12:23;;;;;;;43.08;25.08;;;;;;;;;;4994306;28;20715;-82
2021/11/05 09:14:49;;;;;;;40.83;26.20;;;;;;;;;;4994744;28;20191;-81
2021/11/05 09:17:15;;;;;;;40.10;26.75;;;;;;;;;;4993336;28;20187;-82
2021/11/05 09:19:41;;;;;;;36.78;24.88;;;;;;;;;;4994494;28;20590;-81
2021/11/05 09:22:07;;;;;;;33.30;23.87;;;;;;;;;;4993979;28;20203;-82
2021/11/05 09:24:34;;;;;;;31.73;23.88;;;;;;;;;;4988557;28;20446;-82
2021/11/05 09:27:00;;;;;;;35.53;24.10;;;;;;;;;;4975029;28;20633;-82
2021/11/05 09:29:26;;;;;;;31.08;23.73;;;;;;;;;;4975162;28;20173;-81
2021/11/05 09:31:52;;;;;;;33.20;23.08;;;;;;;;;;4989379;28;20211;-82
2021/11/05 09:34:18;;;;;;;32.67;22.30;;;;;;;;;;4975236;28;20180;-81
2021/11/05 09:36:44;;;;;;;29.52;21.63;;;;;;;;;;4990164;28;20705;-81
2021/11/05 09:39:10;;;;;;;33.53;22.08;;;;;;;;;;4975003;28;20191;-82
2021/11/05 09:41:37;;;;;;;32.40;22.30;;;;;;;;;;4974432;28;20215;-82
2021/11/05 09:44:03;;;;;;;31.15;21.92;;;;;;;;;;4974833;28;20177;-82
2021/11/05 09:46:29;;;;;;;25.40;18.48;;;;;;;;;;4974667;28;20222;-82
2021/11/05 09:48:56;;;;;;;27.02;16.55;;;;;;;;;;4974581;28;20679;-82
2021/11/05 09:51:22;;;;;;;25.38;17.30;;;;;;;;;;4974239;28;20737;-82
2021/11/05 09:53:48;;;;;;;22.58;15.90;;;;;;;;;;4989403;28;20184;-81
2021/11/05 09:56:17;;;;;;;25.30;16.58;;;;;;;;;;4957355;28;20595;-82
2021/11/05 09:58:43;;;;;;;22.98;15.55;;;;;;;;;;4974199;28;20179;-82
2021/11/05 10:01:13;;;;;;;20.03;17.10;;;;;;;;;;4972902;28;20263;-82
2021/11/05 10:03:42;;;;;;;25.25;18.08;;;;;;;;;;4974470;28;20983;-81
2021/11/05 10:06:09;;;;;;;21.30;17.75;;;;;;;;;;4997095;28;20262;-82
2021/11/05 10:08:36;;;;;;;27.08;19.13;;;;;;;;;;4993794;28;20176;-82
2021/11/05 10:11:21;;;;;;;26.35;20.30;;;;;;;;;;4993303;28;20172;-81
2021/11/05 10:13:47;;;;;;;28.88;18.40;;;;;;;;;;5008754;28;20194;-82
2021/11/05 10:16:14;;;;;;;25.60;17.90;;;;;;;;;;4993734;28;20183;-81
2021/11/05 10:18:52;;;;;;;27.25;17.27;;;;;;;;;;5008318;28;20414;-82
2021/11/05 10:21:18;;;;;;;21.23;15.32;;;;;;;;;;5008554;28;20183;-82
2021/11/05 10:23:45;;;;;;;19.05;14.68;;;;;;;;;;4993712;28;20596;-82
2021/11/05 10:26:33;;;;;;;22.67;15.23;;;;;;;;;;4993770;28;20493;-82
2021/11/05 10:28:59;;;;;;;22.25;13.20;;;;;;;;;;5008942;28;20587;-81
2021/11/05 10:31:26;;;;;;;19.52;13.93;;;;;;;;;;4993218;28;20197;-82
2021/11/05 10:33:52;;;;;;;14.27;11.65;;;;;;;;;;4993587;28;20174;-82
2021/11/05 10:36:19;;;;;;;18.42;13.18;;;;;;;;;;4993557;28;20191;-82
2021/11/05 10:38:47;;;;;;;14.23;11.20;;;;;;;;;;4993544;28;20182;-81
2021/11/05 10:41:15;;;;;;;14.98;13.02;;;;;;;;;;4988574;28;20195;-82
2021/11/05 10:43:41;;;;;;;18.45;12.80;;;;;;;;;;4973774;28;20208;-82
2021/11/05 10:46:10;;;;;;;17.60;12.40;;;;;;;;;;4974072;28;20524;-82
2021/11/05 10:48:40;;;;;;;20.57;11.07;;;;;;;;;;4974235;28;20399;-82
2021/11/05 10:51:08;;;;;;;12.30;10.33;;;;;;;;;;4988291;28;20415;-81
2021/11/05 10:53:41;;;;;;;11.97;9.87;;;;;;;;;;4973862;28;20455;-81
2021/11/05 10:56:08;;;;;;;15.50;11.30;;;;;;;;;;4974026;28;20455;-81
2021/11/05 10:58:37;;;;;;;12.97;10.57;;;;;;;;;;4973978;28;20766;-81
2021/11/05 11:01:08;;;;;;;13.73;9.93;;;;;;;;;;4973601;28;20408;-81
2021/11/05 11:03:35;;;;;;;13.17;10.10;;;;;;;;;;4973811;28;20881;-82
2021/11/05 11:06:07;;;;;;;15.20;10.03;;;;;;;;;;4974068;28;20916;-81
2021/11/05 11:08:34;;;;;;;17.48;10.57;;;;;;;;;;4989083;28;20471;-81
2021/11/05 11:11:21;;;;;;;21.63;12.05;;;;;;;;;;4973597;28;20200;-81
2021/11/05 11:13:49;;;;;;;19.45;11.25;;;;;;;;;;4974081;28;20212;-81
2021/11/05 11:16:23;;;;;;;19.02;12.32;;;;;;;;;;4973869;28;20168;-81
2021/11/05 11:18:52;;;;;;;14.60;7.28;;;;;;;;;;5005427;28;20194;-81
2021/11/05 11:21:18;;;;;;;11.48;10.27;;;;;;;;;;4992945;28;20179;-80
2021/11/05 11:23:44;;;;;;;18.38;12.05;;;;;;;;;;4995772;28;20680;-81
2021/11/05 11:26:11;;;;;;;14.13;11.80;;;;;;;;;;4996158;28;20179;-81
2021/11/05 11:28:40;;;;;;;14.75;9.90;;;;;;;;;;4996579;28;20309;-81
2021/11/05 11:31:07;;;;;;;12.52;9.98;;;;;;;;;;4996025;28;20199;-81
2021/11/05 11:33:33;;;;;;;16.10;8.85;;;;;;;;;;4996483;28;20262;-81
2021/11/05 11:36:00;;;;;;;9.13;7.32;;;;;;;;;;4995486;28;20606;-81
2021/11/05 11:38:26;;;;;;;13.70;7.35;;;;;;;;;;4996544;28;20207;-81
2021/11/05 11:40:52;;;;;;;10.55;8.23;;;;;;;;;;4996315;28;20590;-81
2021/11/05 11:43:20;;;;;;;11.88;8.00;;;;;;;;;;4994740;28;20674;-81
2021/11/05 11:45:57;;;;;;;9.70;7.72;;;;;;;;;;4996470;28;20180;-81
2021/11/05 11:48:42;;;;;;;12.85;8.63;;;;;;;;;;4996440;28;20262;-82
2021/11/05 11:51:27;;;;;;;12.98;8.15;;;;;;;;;;4995900;28;20747;-81
2021/11/05 11:54:12;;;;;;;10.75;8.27;;;;;;;;;;4997259;28;20217;-80
2021/11/05 11:56:39;;;;;;;14.18;8.05;;;;;;;;;;5014396;28;20190;-80
2021/11/05 11:59:07;;;;;;;13.93;8.43;;;;;;;;;;4998694;28;20659;-80
2021/11/05 12:01:37;;;;;;;15.15;7.97;;;;;;;;;;4995338;28;20183;-81
2021/11/05 12:04:07;;;;;;;18.83;8.07;;;;;;;;;;5010783;28;20191;-81
2021/11/05 12:06:48;;;;;;;13.25;7.75;;;;;;;;;;4996021;28;20175;-81
2021/11/05 12:09:27;;;;;;;7.97;6.72;;;;;;;;;;4995714;28;20178;-81
2021/11/05 12:12:12;;;;;;;10.98;7.20;;;;;;;;;;5010297;28;20283;-81
2021/11/05 12:15:10;;;;;;;9.27;6.78;;;;;;;;;;4995505;28;20542;-80
2021/11/05 12:17:42;;;;;;;10.38;6.75;;;;;;;;;;4963094;28;20184;-81
2021/11/05 12:20:32;;;;;;;15.25;5.55;;;;;;;;;;4995716;28;20191;-81
2021/11/05 12:23:07;;;;;;;9.98;5.70;;;;;;;;;;4995225;28;20218;-81
2021/11/05 12:25:41;;;;;;;10.30;5.80;;;;;;;;;;4994970;28;20183;-81
2021/11/05 12:28:15;;;;;;;7.50;4.75;;;;;;;;;;4979668;28;20204;-81
2021/11/05 12:30:41;;;;;;;6.95;4.70;;;;;;;;;;4975856;28;20184;-81
2021/11/05 12:33:25;;;;;;;11.25;5.30;;;;;;;;;;4974299;28;20208;-81
2021/11/05 12:35:52;;;;;;;9.40;5.00;;;;;;;;;;4974931;28;20188;-81
2021/11/05 12:38:19;;;;;;;8.57;4.45;;;;;;;;;;4974736;28;20199;-81
2021/11/05 12:40:54;;;;;;;6.85;3.75;;;;;;;;;;4976040;28;20176;-81
2021/11/05 12:43:24;;;;;;;8.18;3.92;;;;;;;;;;4974233;28;20234;-81
2021/11/05 12:45:52;;;;;;;15.40;5.00;;;;;;;;;;4974362;28;20235;-81
2021/11/05 12:48:39;;;;;;;8.35;5.00;;;;;;;;;;4974440;28;20282;-81
2021/11/05 12:51:09;;;;;;;9.25;3.67;;;;;;;;;;4975434;28;20231;-81
2021/11/05 12:53:35;;;;;;;10.52;3.53;;;;;;;;;;4975514;28;20232;-80
2021/11/05 12:56:01;;;;;;;6.80;3.90;;;;;;;;;;4975476;28;20203;-81
2021/11/05 12:58:28;;;;;;;5.75;3.42;;;;;;;;;;4975292;28;20292;-81
2021/11/05 13:00:55;;;;;;;12.88;4.13;;;;;;;;;;4994310;28;20199;-81
2021/11/05 13:03:21;;;;;;;3.67;2.60;;;;;;;;;;5009486;28;20247;-81
2021/11/05 13:05:54;;;;;;;7.45;3.20;;;;;;;;;;5009805;28;20183;-81
2021/11/05 13:08:23;;;;;;;6.40;2.97;;;;;;;;;;4994609;28;20183;-81
2021/11/05 13:10:49;;;;;;;4.90;2.97;;;;;;;;;;5009785;28;20260;-81
2021/11/05 13:13:16;;;;;;;6.43;3.00;;;;;;;;;;4994640;28;20226;-81
2021/11/05 13:15:44;;;;;;;7.57;3.10;;;;;;;;;;4992513;28;20533;-80
2021/11/05 13:18:11;;;;;;;8.35;2.70;;;;;;;;;;4989287;28;20191;-81
2021/11/05 13:20:41;;;;;;;7.50;2.92;;;;;;;;;;4992994;28;20180;-78
2021/11/05 13:23:08;;;;;;;5.28;2.72;;;;;;;;;;4992151;28;20270;-77
2021/11/05 13:25:35;;;;;;;5.50;2.65;;;;;;;;;;4991514;28;20226;-78
2021/11/05 13:28:04;;;;;;;4.35;2.60;;;;;;;;;;4993308;28;20230;-78
2021/11/05 13:30:33;;;;;;;7.40;2.28;;;;;;;;;;4991006;28;20186;-80
2021/11/05 13:33:00;;;;;;;4.18;2.15;;;;;;;;;;4992783;28;20224;-80
2021/11/05 13:35:26;;;;;;;8.27;2.63;;;;;;;;;;4992184;28;20187;-79
2021/11/05 13:38:19;;;;;;;5.95;2.00;;;;;;;;;;5007660;28;20595;-81
2021/11/05 13:40:52;;;;;;;4.13;1.90;;;;;;;;;;4988962;28;20728;-79
2021/11/05 13:43:18;;;;;;;3.95;2.00;;;;;;;;;;4992507;28;20210;-78
2021/11/05 13:45:46;;;;;;;6.38;2.60;;;;;;;;;;5006514;28;20719;-80
2021/11/05 13:48:19;;;;;;;7.03;2.67;;;;;;;;;;4992222;28;20226;-79
2021/11/05 13:50:49;;;;;;;5.50;2.50;;;;;;;;;;4992444;28;20559;-77
2021/11/05 13:53:19;;;;;;;7.53;3.60;;;;;;;;;;4991680;28;20209;-81
2021/11/05 13:55:45;;;;;;;10.80;3.30;;;;;;;;;;4992571;28;20219;-77
2021/11/05 13:58:11;;;;;;;5.15;2.33;;;;;;;;;;4992543;28;20263;-80
2021/11/05 14:00:42;;;;;;;6.03;2.47;;;;;;;;;;4991472;28;20532;-79
2021/11/05 14:03:08;;;;;;;7.90;3.25;;;;;;;;;;4991787;28;20211;-79
2021/11/05 14:05:34;;;;;;;10.65;3.38;;;;;;;;;;4990839;28;20183;-79
2021/11/05 14:08:08;;;;;;;6.45;3.08;;;;;;;;;;4990777;28;20192;-80
2021/11/05 14:10:52;;;;;;;8.40;2.88;;;;;;;;;;4992382;28;20184;-78
2021/11/05 14:13:19;;;;;;;12.88;3.33;;;;;;;;;;4991616;28;20675;-77
2021/11/05 14:15:45;;;;;;;12.60;3.25;;;;;;;;;;4991894;28;20200;-80
2021/11/05 14:18:16;;;;;;;8.02;3.28;;;;;;;;;;4989403;28;20215;-78
2021/11/05 14:20:42;;;;;;;7.57;3.17;;;;;;;;;;4993585;28;20238;-77
2021/11/05 14:23:24;;;;;;;7.93;3.58;;;;;;;;;;4993058;28;20238;-78